Weather observations for the past three days for
Monroe, Monroe Airport
Metric (Imperial)
Date Time (edt) Wind (kph) Vis. (km) Weather Sky Cond. Temperature (ºC) Relative Humidity Wind Chill (°C) Heat Index (°C) Pressure Precipitation (cm)
Air Dwpt 6 hour altimeter (cm) sea level (mb) 1 hr 3 hr 6 hr
Max. Min.
04 13:53 SW 7 16.09 Fair CLR 33.9 23.9 33.9 24.4 56% 40 76.25 1016.0
04 12:53 Vrbl 6 16.09 Fair CLR 32.2 23.9 62% 38 76.3 1016.5
04 11:53 SW 11 16.09 Fair CLR 31.7 25 68% 39 76.35 1017.2
04 10:53 SW 13 16.09 Fair CLR 30 24.4 72% 36 76.35 1017.3
04 09:53 SW 19 16.09 Fair CLR 28.3 23.9 77% 32 76.35 1017.3
04 08:53 SW 15 16.09 Fair CLR 26.7 24.4 87% 30 76.35 1017.5
04 07:53 SW 7 16.09 Fair CLR 24.4 23.3 25.6 22.8 94% 24 76.35 1017.4
04 06:53 SW 11 16.09 Fair CLR 23.3 22.2 94% 76.3 1016.6
04 05:53 SW 7 16.09 Fair CLR 22.8 22.2 96% 76.28 1016.4
04 04:53 Calm 16.09 Fair CLR 23.3 22.2 94% 76.25 1016.1
04 03:53 SW 6 16.09 Fair CLR 24.4 22.2 88% 25 76.25 1016.0
04 02:53 SW 6 16.09 Fair CLR 25 22.2 85% 26 76.25 1016.1
04 01:53 Calm 16.09 Fair CLR 25 21.7 29.4 25 82% 26 76.3 1016.7
04 00:53 S 6 16.09 Fair CLR 26.7 21.7 74% 29 76.33 1017.0
03 23:53 Calm 16.09 Fair CLR 27.2 21.1 69% 29 76.33 1017.0
03 22:53 S 7 16.09 Fair CLR 28.3 22.2 70% 31 76.35 1017.4
03 21:53 Calm 16.09 Fair CLR 27.2 23.9 82% 30 76.33 1017.2
03 20:53 Calm 16.09 Fair CLR 27.8 24.4 82% 32 76.25 1016.2
03 19:53 Calm 16.09 Fair CLR 29.4 23.9 36.1 29.4 72% 34 76.2 1015.4
03 18:53 Calm 16.09 Fair CLR 32.2 24.4 63% 39 76.17 1015.2
03 17:53 Calm 16.09 Fair CLR 35 23.3 51% 41 76.2 1015.2
03 16:53 Calm 16.09 Fair CLR 35.6 22.8 48% 41 76.2 1015.4
03 15:53 Vrbl 7 16.09 Mostly Cloudy BKN055 35.6 23.3 49% 42 76.25 1016.1
03 14:53 Vrbl 9 16.09 Partly Cloudy SCT050 35 22.8 49% 40 76.3 1016.4
03 13:53 NE 11 16.09 Fair CLR 35 22.8 35.6 24.4 49% 40 76.33 1016.9
03 12:53 Vrbl 7 16.09 Fair CLR 34.4 22.8 51% 40 76.38 1017.5
03 11:53 N 6 12.87 Fair CLR 33.9 23.3 54% 40 76.4 1018.0
03 10:53 NW 6 16.09 Fair CLR 31.7 24.4 65% 38 76.4 1018.0
03 09:53 Calm 16.09 Fair CLR 29.4 23.9 72% 34 76.4 1017.9
03 08:53 W 11 16.09 Fair CLR 27.2 22.8 77% 30 76.4 1018.2
03 07:53 SW 7 16.09 Fair CLR 24.4 23.3 25.6 23.3 94% 24 76.4 1018.3
03 06:53 SW 9 16.09 Fair CLR 23.9 22.2 90% 23 76.38 1017.6
03 05:53 SW 9 16.09 Fair CLR 23.9 22.2 90% 23 76.35 1017.2
03 04:53 SW 7 16.09 Fair CLR 23.9 22.2 90% 23 76.33 1017.1
03 03:53 SW 7 16.09 Fair CLR 24.4 22.2 88% 25 76.33 1016.9
03 02:53 Calm 16.09 Fair CLR 25.6 22.2 82% 27 76.3 1016.5
03 01:53 SW 6 16.09 Fair CLR 25.6 22.2 29.4 25.6 82% 27 76.3 1016.4
03 00:53 W 7 16.09 Fair CLR 26.1 22.2 79% 28 76.28 1016.3
02 23:53 Calm 16.09 Fair CLR 26.1 22.8 82% 28 76.33 1016.9
02 22:53 Calm 16.09 Fair CLR 26.7 23.3 82% 29 76.38 1017.6
02 21:53 Calm 14.48 Fair CLR 27.2 23.9 82% 30 76.38 1017.7
02 20:53 Calm 16.09 Fair CLR 27.8 24.4 82% 32 76.33 1016.9
02 19:53 Calm 16.09 Fair CLR 29.4 23.9 36.1 29.4 72% 34 76.28 1016.7
02 18:53 NE 6 16.09 Fair CLR 33.3 22.2 52% 38 76.28 1016.4
02 17:53 E 6 16.09 Fair CLR 35 21.1 44% 39 76.28 1016.4
02 16:53 Calm 16.09 Fair CLR 35.6 21.7 44% 40 76.3 1016.6
02 15:53 Calm 16.09 Fair CLR 35 21.7 46% 39 76.33 1016.9
02 14:53 Calm 16.09 A Few Clouds FEW060 35 21.1 44% 39 76.35 1017.5
02 13:53 Vrbl 6 16.09 Fair CLR 35.6 21.7 35.6 25 44% 40 76.4 1017.9
02 12:53 NW 6 16.09 Fair CLR 34.4 21.1 46% 38 76.45 1018.6
02 11:53 NE 6 16.09 Fair CLR 33.3 21.7 51% 37 76.48 1018.9
02 10:53 N 6 16.09 Fair CLR 32.2 22.8 58% 37 76.48 1018.9
02 09:53 NW 6 16.09 Fair CLR 30.6 23.3 65% 35 76.45 1018.6
02 08:53 Calm 16.09 Fair CLR 27.2 23.9 82% 30 76.48 1019.1
02 07:53 W 6 16.09 Fair CLR 25 22.8 25 22.8 88% 26 76.48 1019.1
02 06:53 SW 7 16.09 Fair CLR 22.8 21.7 94% 76.45 1018.8
02 05:53 W 6 16.09 Fair CLR 23.3 22.2 94% 76.4 1018.3
02 04:53 SW 6 16.09 Fair CLR 23.3 22.2 94% 76.38 1017.7
02 03:53 SW 7 16.09 Fair CLR 23.9 22.2 90% 23 76.38 1017.7
02 02:53 SW 6 16.09 Fair CLR 25 22.2 85% 26 76.38 1017.7
02 01:53 SW 6 16.09 Fair CLR 25 21.7 28.3 24.4 82% 26 76.38 1017.7
02 00:53 Calm 16.09 Fair CLR 24.4 22.2 88% 25 76.38 1017.7
01 23:53 Calm 16.09 Fair CLR 25.6 22.2 82% 27 76.38 1017.6
01 22:53 Calm 16.09 Fair CLR 25.6 23.3 87% 27 76.35 1017.6
01 21:53 Calm 16.09 Fair CLR 26.7 23.9 85% 29 76.35 1017.5
01 20:53 Calm 16.09 Fair CLR 26.7 23.9 85% 29 76.33 1017.2
01 19:53 Calm 16.09 Fair CLR 28.9 23.3 35.6 28.9 72% 33 76.3 1017.0
01 18:53 Calm 16.09 Fair CLR 31.1 25 70% 38 76.33 1017.1
01 17:53 Calm 16.09 Fair CLR 32.8 23.3 57% 38 76.33 1017.0
01 16:53 Calm 16.09 A Few Clouds FEW060 34.4 21.1 46% 38 76.3 1016.9
01 15:53 E 6 16.09 Partly Cloudy SCT055 34.4 21.7 48% 38 76.35 1017.2
01 14:53 Calm 16.09 A Few Clouds FEW050 34.4 21.7 48% 38 76.4 1017.8
Date Time (edt) Wind (kph) Vis. (km) Weather Sky Cond. Air Dwpt Max. Min. Relative Humidity Wind Chill (°C) Heat Index (°C) altimeter (cm) sea level (mb) 1 hr 3 hr 6 hr
6 hour
Temperature (ºC) Pressure Precipitation (cm)